Time;durP1;ratioP1;P1;durP2;ratioP2;P2;SDS_P1;SDS_P2;PMS_P1;PMS_P2;Temp;Humidity;BMP_temperature;BMP_pressure;BME280_temperature;BME280_humidity;BME280_pressure;Samples;Min_cycle;Max_cycle;Signal;HPM_P1;HPM_P2
2022/07/14 00:00:44;;;;;;;12.87;3.33;;;;;;;18.18;70.98;102002.16;5293018;28;20436;-73
2022/07/14 00:03:16;;;;;;;12.23;3.50;;;;;;;18.09;71.07;101996.56;5290688;28;20020;-72
2022/07/14 00:05:47;;;;;;;12.90;3.40;;;;;;;17.98;72.23;102004.44;5288791;28;20044;-73
2022/07/14 00:08:18;;;;;;;13.73;3.53;;;;;;;17.70;73.56;102014.41;5290751;28;20031;-72
2022/07/14 00:10:50;;;;;;;11.80;3.13;;;;;;;17.88;72.86;102013.06;5289637;28;20469;-73
2022/07/14 00:13:21;;;;;;;8.70;3.03;;;;;;;17.80;73.52;102014.59;5290170;28;20023;-73
2022/07/14 00:15:53;;;;;;;12.17;2.90;;;;;;;17.68;74.10;101990.66;5289557;28;20431;-72
2022/07/14 00:18:24;;;;;;;12.20;3.43;;;;;;;17.71;74.02;101985.16;5290874;28;20023;-73
2022/07/14 00:20:56;;;;;;;11.53;3.80;;;;;;;17.70;73.80;101982.63;5292056;28;20506;-72
2022/07/14 00:23:27;;;;;;;13.63;4.53;;;;;;;17.79;74.28;101968.69;5290898;28;20073;-73
2022/07/14 00:25:58;;;;;;;11.07;2.90;;;;;;;17.77;73.85;101962.66;5290255;28;20400;-73
2022/07/14 00:28:30;;;;;;;14.80;4.00;;;;;;;17.74;74.39;101960.22;5290280;28;20020;-72
2022/07/14 00:31:05;;;;;;;13.80;3.10;;;;;;;17.75;74.82;101972.53;5288854;28;20024;-73
2022/07/14 00:33:40;;;;;;;17.63;4.53;;;;;;;18.00;73.19;101970.72;5291325;28;20047;-72
2022/07/14 00:36:12;;;;;;;10.00;3.33;;;;;;;17.94;73.09;101976.47;5289741;28;20028;-73
2022/07/14 00:38:43;;;;;;;14.00;2.63;;;;;;;17.85;74.10;101985.94;5290873;28;20505;-72
2022/07/14 00:41:15;;;;;;;14.33;4.07;;;;;;;18.01;73.35;101993.63;5289666;28;20092;-73
2022/07/14 00:43:46;;;;;;;13.50;4.40;;;;;;;17.83;74.25;101994.00;5290159;28;20036;-72
2022/07/14 00:46:17;;;;;;;11.83;3.37;;;;;;;17.55;75.84;101996.00;5290534;28;20036;-72
2022/07/14 00:48:49;;;;;;;17.07;4.17;;;;;;;17.68;75.45;101990.66;5289334;28;20058;-73
2022/07/14 00:51:20;;;;;;;8.30;3.30;;;;;;;17.71;75.14;101989.59;5290923;28;20115;-73
2022/07/14 00:53:55;;;;;;;11.67;3.07;;;;;;;17.96;73.72;101980.69;5291308;28;20474;-73
2022/07/14 00:56:26;;;;;;;13.50;3.90;;;;;;;17.80;74.41;101978.34;5291600;28;20495;-73
2022/07/14 00:58:57;;;;;;;15.13;4.07;;;;;;;17.82;74.87;101992.31;5288643;28;20026;-73
2022/07/14 01:01:31;;;;;;;15.80;3.60;;;;;;;17.99;73.83;101992.88;5290216;28;20099;-73
2022/07/14 01:04:02;;;;;;;11.93;3.17;;;;;;;17.61;76.18;101986.78;5289978;28;20093;-73
2022/07/14 01:06:33;;;;;;;13.47;3.40;;;;;;;17.56;76.43;101992.38;5291246;28;20052;-73
2022/07/14 01:09:05;;;;;;;13.17;3.90;;;;;;;17.81;75.25;101997.72;5291181;28;20063;-73
2022/07/14 01:11:36;;;;;;;12.70;3.77;;;;;;;17.71;75.95;102005.50;5289915;22;20053;-72
2022/07/14 01:14:08;;;;;;;15.30;3.30;;;;;;;17.53;76.55;102004.06;5268732;28;20037;-72
2022/07/14 01:16:40;;;;;;;18.07;4.23;;;;;;;17.54;76.85;102018.97;5270659;28;20024;-72
2022/07/14 01:19:11;;;;;;;15.73;3.70;;;;;;;17.47;76.93;102006.31;5250582;28;20473;-72
2022/07/14 01:21:43;;;;;;;14.10;3.50;;;;;;;17.73;75.49;102008.88;5253027;28;20033;-72
2022/07/14 01:24:14;;;;;;;13.03;3.47;;;;;;;17.74;75.44;102014.06;5269162;28;20024;-72
2022/07/14 01:26:45;;;;;;;13.60;4.47;;;;;;;17.37;76.51;102003.44;5269723;28;20041;-72
2022/07/14 01:29:18;;;;;;;12.60;3.77;;;;;;;17.44;77.78;102006.53;5269619;28;20039;-72
2022/07/14 01:31:50;;;;;;;20.47;4.40;;;;;;;17.55;77.15;102017.19;5239052;28;20034;-72
2022/07/14 01:34:21;;;;;;;16.60;4.73;;;;;;;17.25;78.24;102010.44;5273699;28;20028;-72
2022/07/14 01:36:52;;;;;;;10.90;3.37;;;;;;;17.32;78.83;102013.50;5273160;28;20082;-73
2022/07/14 01:39:23;;;;;;;11.73;4.13;;;;;;;17.40;77.65;102008.53;5272580;28;20104;-72
2022/07/14 01:41:55;;;;;;;13.73;4.37;;;;;;;17.55;77.46;102017.19;5274248;28;20082;-72
2022/07/14 01:44:26;;;;;;;19.77;4.70;;;;;;;17.62;76.75;102009.66;5253498;28;20036;-73
2022/07/14 01:46:57;;;;;;;15.20;3.80;;;;;;;17.49;77.89;102009.69;5273115;28;20039;-73
2022/07/14 01:49:29;;;;;;;17.17;4.23;;;;;;;17.51;77.62;102007.75;5273647;28;20064;-73
2022/07/14 01:52:00;;;;;;;15.57;3.77;;;;;;;17.65;77.18;102014.72;5272907;28;20037;-73
2022/07/14 01:54:32;;;;;;;14.43;3.77;;;;;;;17.62;76.81;101999.91;5272829;28;20441;-72
2022/07/14 01:57:03;;;;;;;13.37;3.80;;;;;;;17.37;77.77;102001.66;5270507;28;20029;-72
2022/07/14 01:59:35;;;;;;;19.03;4.27;;;;;;;17.45;78.53;101997.63;5271132;28;20027;-72
2022/07/14 02:02:07;;;;;;;13.40;4.03;;;;;;;17.17;79.11;101998.59;5253803;28;20031;-71
2022/07/14 02:04:38;;;;;;;14.43;3.37;;;;;;;17.34;78.59;102001.88;5270429;28;20036;-73
2022/07/14 02:07:09;;;;;;;11.43;3.83;;;;;;;17.31;79.08;101998.59;5271867;28;20032;-73
2022/07/14 02:12:30;;;;;;;13.20;3.83;;;;;;;17.25;79.20;102000.72;5272853;28;20044;-72
2022/07/14 02:15:03;;;;;;;14.43;4.73;;;;;;;16.97;80.39;102005.25;5272999;28;20032;-72
2022/07/14 02:17:34;;;;;;;12.47;3.40;;;;;;;16.90;80.85;101999.53;5272656;28;20044;-72
2022/07/14 02:20:08;;;;;;;16.00;4.57;;;;;;;16.97;80.17;101994.66;5272912;28;20475;-72
2022/07/14 02:22:39;;;;;;;7.45;3.30;;;;;;;16.96;81.13;101997.41;5273009;28;20032;-73
2022/07/14 02:25:12;;;;;;;14.37;3.40;;;;;;;17.07;80.25;102008.09;5272697;28;20029;-73
2022/07/14 02:27:43;;;;;;;14.33;4.43;;;;;;;17.22;78.98;102011.53;5237864;28;20120;-73
2022/07/14 02:30:15;;;;;;;11.90;3.10;;;;;;;16.95;79.94;101990.44;5270546;28;20111;-73
2022/07/14 02:32:46;;;;;;;14.87;4.67;;;;;;;16.62;81.74;101982.03;5254324;28;20048;-73
2022/07/14 02:35:18;;;;;;;16.17;4.27;;;;;;;16.82;81.59;101999.22;5272914;28;20027;-72
2022/07/14 02:37:49;;;;;;;12.87;3.53;;;;;;;17.15;79.12;101995.22;5271216;28;20025;-72
2022/07/14 02:40:21;;;;;;;18.57;3.80;;;;;;;16.79;81.20;101988.84;5271944;28;20059;-73
2022/07/14 02:42:52;;;;;;;13.23;3.17;;;;;;;16.66;82.65;101988.81;5270473;28;20029;-73
2022/07/14 02:45:23;;;;;;;10.67;3.63;;;;;;;16.56;81.96;101985.97;5271254;28;20024;-73
2022/07/14 02:47:54;;;;;;;16.67;4.13;;;;;;;16.62;82.38;101974.97;5273200;28;20024;-73
2022/07/14 02:50:26;;;;;;;11.20;3.73;;;;;;;16.60;82.33;101983.97;5271105;28;20036;-71
2022/07/14 02:52:57;;;;;;;14.40;3.90;;;;;;;16.72;81.25;101961.94;5272417;28;20043;-72
2022/07/14 02:55:29;;;;;;;17.33;4.13;;;;;;;16.63;82.11;101971.38;5272331;28;20475;-72
2022/07/14 02:58:01;;;;;;;22.50;5.30;;;;;;;16.37;83.67;101970.50;5256089;28;20374;-72
2022/07/14 03:00:33;;;;;;;15.00;5.27;;;;;;;16.54;82.74;101975.50;5273543;28;20032;-73
2022/07/14 03:03:06;;;;;;;14.97;4.60;;;;;;;16.53;82.46;101973.78;5271159;28;20025;-73
2022/07/14 03:05:37;;;;;;;11.97;3.67;;;;;;;16.35;84.15;101975.88;5272493;28;20043;-73
2022/07/14 03:08:09;;;;;;;11.67;4.40;;;;;;;16.37;83.82;101971.31;5271821;28;20037;-73
2022/07/14 03:10:41;;;;;;;11.37;4.00;;;;;;;16.27;84.14;101972.88;5271665;28;20494;-72
2022/07/14 03:13:12;;;;;;;16.07;4.17;;;;;;;16.07;85.63;101961.84;5270297;28;20518;-72
2022/07/14 03:15:44;;;;;;;13.57;4.43;;;;;;;16.25;84.97;101966.88;5271714;28;20162;-72
2022/07/14 03:18:15;;;;;;;16.00;4.43;;;;;;;16.19;85.07;101953.13;5271460;28;20036;-72
2022/07/14 03:20:46;;;;;;;15.10;4.30;;;;;;;16.06;86.56;101954.84;5273109;28;20021;-73
2022/07/14 03:23:18;;;;;;;15.73;3.90;;;;;;;16.02;86.77;101942.81;5270702;28;20025;-73
2022/07/14 03:25:50;;;;;;;12.27;3.90;;;;;;;16.07;86.35;101948.63;5272018;28;20117;-71
2022/07/14 03:28:21;;;;;;;13.97;4.60;;;;;;;15.99;86.67;101937.69;5270992;28;20498;-72
2022/07/14 03:30:55;;;;;;;15.80;4.60;;;;;;;16.01;86.53;101941.09;5271560;28;20722;-72
2022/07/14 03:33:26;;;;;;;14.60;4.13;;;;;;;15.86;88.04;101954.34;5271604;28;20028;-72
2022/07/14 03:35:57;;;;;;;10.73;3.93;;;;;;;15.82;88.50;101951.06;5269669;28;20024;-73
2022/07/14 03:38:29;;;;;;;19.20;4.60;;;;;;;15.79;89.04;101955.69;5271728;28;20111;-73
2022/07/14 03:41:02;;;;;;;15.03;4.93;;;;;;;15.78;88.92;101946.91;5271317;28;20017;-73
2022/07/14 03:43:34;;;;;;;12.98;4.47;;;;;;;15.93;87.32;101942.44;5252011;28;20035;-72
2022/07/14 03:46:06;;;;;;;10.70;4.50;;;;;;;15.64;89.37;101952.25;5270801;28;20033;-72
2022/07/14 03:48:38;;;;;;;12.00;4.03;;;;;;;15.85;87.94;101942.91;5270603;28;20437;-73
2022/07/14 03:51:09;;;;;;;15.00;5.70;;;;;;;15.57;90.41;101955.25;5271750;28;20040;-72
2022/07/14 03:53:41;;;;;;;14.33;5.27;;;;;;;15.60;90.66;101962.97;5271026;28;20036;-72
2022/07/14 03:56:12;;;;;;;18.07;5.33;;;;;;;15.97;87.42;101970.34;5270365;28;20474;-72
2022/07/14 03:58:44;;;;;;;15.40;4.80;;;;;;;15.96;87.30;101976.56;5269560;28;20029;-72
2022/07/14 04:01:15;;;;;;;16.17;4.23;;;;;;;16.08;86.64;101984.66;5270597;28;20552;-72
2022/07/14 04:03:46;;;;;;;15.37;4.60;;;;;;;15.95;87.33;101974.84;5270369;28;20083;-72
2022/07/14 04:06:17;;;;;;;15.17;4.40;;;;;;;16.04;86.77;101980.56;5270085;28;20071;-72
2022/07/14 04:08:49;;;;;;;13.73;4.20;;;;;;;15.79;88.48;101982.09;5270885;28;20078;-72
2022/07/14 04:11:20;;;;;;;15.83;4.63;;;;;;;15.77;89.00;101986.63;5269147;28;20037;-72
2022/07/14 04:13:51;;;;;;;14.37;4.13;;;;;;;15.93;87.51;101976.78;5270425;28;20032;-72
2022/07/14 04:16:22;;;;;;;15.30;5.10;;;;;;;15.62;89.24;101978.75;5269881;28;20029;-72
2022/07/14 04:18:54;;;;;;;14.10;4.43;;;;;;;15.94;87.45;101977.59;5270064;28;20031;-72
2022/07/14 04:21:25;;;;;;;18.37;4.97;;;;;;;15.75;89.26;101978.81;5253000;28;20083;-72
2022/07/14 04:23:57;;;;;;;11.60;4.83;;;;;;;15.67;89.27;101971.38;5268842;28;20051;-74
2022/07/14 04:26:28;;;;;;;12.33;4.60;;;;;;;15.73;88.67;101968.34;5252933;28;20031;-73
2022/07/14 04:29:00;;;;;;;21.60;6.10;;;;;;;15.62;90.11;101973.47;5268580;28;20471;-71
2022/07/14 04:31:31;;;;;;;20.00;5.60;;;;;;;15.46;90.97;101969.13;5271016;28;20021;-72
2022/07/14 04:34:03;;;;;;;19.73;5.67;;;;;;;15.67;89.46;101971.38;5269995;28;20138;-72
2022/07/14 04:36:34;;;;;;;11.50;4.40;;;;;;;15.80;89.03;101974.06;5270146;28;20021;-72
2022/07/14 04:39:07;;;;;;;14.50;5.23;;;;;;;15.57;90.73;101980.81;5269759;28;20162;-71
2022/07/14 04:41:38;;;;;;;19.97;5.20;;;;;;;15.53;91.63;101974.91;5270294;28;20020;-72
2022/07/14 04:44:09;;;;;;;21.77;5.50;;;;;;;15.46;92.82;101963.84;5268682;28;20541;-72
2022/07/14 04:46:40;;;;;;;17.67;6.13;;;;;;;15.48;93.58;101961.13;5269789;28;20055;-72
2022/07/14 04:52:01;;;;;;;25.93;5.37;;;;;;;15.45;93.73;101956.88;5269874;28;20040;-72
2022/07/14 04:54:34;;;;;;;19.17;5.13;;;;;;;15.59;93.46;101957.78;5269394;28;20638;-72
2022/07/14 04:57:06;;;;;;;16.77;5.37;;;;;;;15.59;92.34;101953.38;5268256;28;20028;-72
2022/07/14 04:59:37;;;;;;;19.47;5.00;;;;;;;15.52;94.76;101961.75;5270737;28;20035;-72
2022/07/14 05:02:09;;;;;;;16.50;5.70;;;;;;;15.55;92.68;101951.03;5269362;28;20025;-72
2022/07/14 05:04:40;;;;;;;20.93;6.07;;;;;;;15.72;92.16;101966.66;5270315;28;20028;-72
2022/07/14 05:07:11;;;;;;;15.87;6.00;;;;;;;15.60;93.76;101986.75;5271291;28;20056;-72
2022/07/14 05:09:43;;;;;;;20.43;5.47;;;;;;;15.76;92.36;101991.03;5256298;28;20060;-72
2022/07/14 05:12:16;;;;;;;14.57;4.93;;;;;;;15.76;92.22;101988.41;5273423;28;20108;-72
2022/07/14 05:14:47;;;;;;;15.23;6.00;;;;;;;15.66;93.51;101984.66;5273293;28;20041;-71
2022/07/14 05:17:18;;;;;;;20.27;5.70;;;;;;;15.57;94.48;101980.81;5276808;28;20025;-72
2022/07/14 05:19:51;;;;;;;22.73;6.30;;;;;;;15.63;93.34;101988.34;5274257;28;20052;-73
2022/07/14 05:22:23;;;;;;;17.63;5.70;;;;;;;15.65;93.06;101981.19;5272750;28;20063;-72
2022/07/14 05:24:54;;;;;;;20.37;5.77;;;;;;;15.66;93.72;101972.31;5270698;28;20443;-72
2022/07/14 05:27:27;;;;;;;18.73;5.53;;;;;;;15.63;93.17;101964.59;5255209;28;20491;-72
2022/07/14 05:29:58;;;;;;;19.13;5.60;;;;;;;15.62;93.83;101980.53;5259060;28;20563;-72
2022/07/14 05:32:30;;;;;;;17.53;5.10;;;;;;;15.75;92.49;101977.94;5267564;28;20020;-71
2022/07/14 05:35:03;;;;;;;17.77;5.57;;;;;;;15.69;93.41;101969.47;5271465;28;20608;-72
2022/07/14 05:37:34;;;;;;;16.97;5.37;;;;;;;15.72;93.57;101974.56;5274712;28;20115;-72
2022/07/14 05:40:06;;;;;;;17.30;5.47;;;;;;;15.76;91.85;101964.63;5276075;28;20159;-72
2022/07/14 05:42:37;;;;;;;16.87;5.30;;;;;;;15.84;91.30;101978.22;5274028;28;20094;-73
2022/07/14 05:45:09;;;;;;;22.73;5.83;;;;;;;15.77;93.91;101976.06;5276745;28;20683;-72
2022/07/14 05:47:42;;;;;;;17.73;5.53;;;;;;;15.85;91.34;101971.97;5270875;28;20543;-72
2022/07/14 05:50:13;;;;;;;15.97;5.67;;;;;;;15.96;91.04;101988.94;5266440;28;20050;-72
2022/07/14 05:52:44;;;;;;;19.10;6.23;;;;;;;16.07;90.49;101977.69;5267228;28;20028;-73
2022/07/14 05:55:16;;;;;;;25.10;6.97;;;;;;;16.04;90.76;101980.56;5266942;28;20221;-73
2022/07/14 05:57:47;;;;;;;18.43;6.07;;;;;;;16.03;90.25;101981.47;5245473;28;20040;-73
2022/07/14 06:00:18;;;;;;;22.47;5.67;;;;;;;16.10;89.82;101969.56;5269206;28;20024;-73
2022/07/14 06:02:50;;;;;;;17.13;5.77;;;;;;;16.09;90.26;101968.72;5247638;28;20060;-73
2022/07/14 06:05:21;;;;;;;15.53;5.27;;;;;;;16.17;89.45;101965.56;5255036;28;20077;-74
2022/07/14 06:07:52;;;;;;;17.83;5.70;;;;;;;16.28;87.21;101964.00;5262406;28;20041;-73
2022/07/14 06:10:23;;;;;;;16.97;5.10;;;;;;;16.40;87.01;101967.63;5264488;28;20939;-75
2022/07/14 06:12:55;;;;;;;15.70;5.03;;;;;;;16.33;87.43;101961.91;5265268;28;20517;-75
2022/07/14 06:15:26;;;;;;;17.57;5.80;;;;;;;16.42;87.76;101977.13;5268947;28;20465;-75
2022/07/14 06:17:57;;;;;;;19.80;6.50;;;;;;;16.56;86.02;101983.31;5258342;28;20037;-75
2022/07/14 06:20:28;;;;;;;19.80;5.47;;;;;;;16.48;87.64;101977.72;5263333;28;20108;-75
2022/07/14 06:23:00;;;;;;;19.73;5.73;;;;;;;16.54;86.61;101972.00;5265321;28;20017;-75
2022/07/14 06:25:31;;;;;;;16.93;5.33;;;;;;;16.65;86.54;101964.16;5264429;28;20519;-75
2022/07/14 06:28:03;;;;;;;20.90;6.23;;;;;;;16.69;84.74;101970.09;5266335;28;20036;-73
2022/07/14 06:30:35;;;;;;;20.40;5.23;;;;;;;16.69;84.67;101954.22;5252023;28;20035;-74
2022/07/14 06:33:06;;;;;;;22.57;5.70;;;;;;;16.82;84.20;101962.19;5267790;28;20107;-74
2022/07/14 06:35:42;;;;;;;16.87;3.93;;;;;;;16.90;83.51;101973.06;5257614;28;20040;-74
2022/07/14 06:38:14;;;;;;;17.93;4.50;;;;;;;16.95;82.44;101966.63;5259757;28;20111;-74
2022/07/14 06:40:45;;;;;;;21.43;5.67;;;;;;;16.89;81.33;101975.81;5267149;28;21030;-74
2022/07/14 06:43:16;;;;;;;21.53;4.77;;;;;;;16.87;82.90;101964.50;5260656;28;20475;-74
2022/07/14 06:45:47;;;;;;;18.97;4.17;;;;;;;17.00;80.98;101969.81;5244384;28;20455;-73
2022/07/14 06:48:21;;;;;;;16.60;4.63;;;;;;;17.01;82.15;101985.56;5256458;28;20024;-73
2022/07/14 06:50:52;;;;;;;21.20;5.50;;;;;;;17.11;79.13;101983.16;5261333;28;20112;-73
2022/07/14 06:53:24;;;;;;;15.43;5.13;;;;;;;17.17;79.49;101982.72;5265461;28;20107;-72
2022/07/14 06:55:55;;;;;;;20.27;5.30;;;;;;;17.21;77.73;101962.16;5272131;28;20107;-74
2022/07/14 06:58:27;;;;;;;16.63;5.03;;;;;;;17.20;79.32;101980.81;5268252;28;20040;-75
2022/07/14 07:00:58;;;;;;;20.43;5.97;;;;;;;17.27;77.36;101966.19;5270893;28;20031;-73
2022/07/14 07:03:29;;;;;;;18.47;6.00;;;;;;;17.52;76.41;101967.91;5270911;28;20028;-73
2022/07/14 07:08:51;;;;;;;13.83;5.30;;;;;;;17.55;75.86;101964.22;5251428;28;21009;-74
2022/07/14 07:11:22;;;;;;;14.47;5.33;;;;;;;17.62;76.02;101952.22;5221168;28;20037;-74
2022/07/14 07:13:54;;;;;;;15.90;5.50;;;;;;;17.73;73.35;101966.50;5243452;28;20040;-75
2022/07/14 07:16:25;;;;;;;16.90;5.60;;;;;;;17.81;72.68;101969.44;5249780;28;20619;-75
2022/07/14 07:18:57;;;;;;;19.13;4.67;;;;;;;17.91;72.77;101972.22;5253279;28;20059;-74
2022/07/14 07:21:29;;;;;;;12.77;4.57;;;;;;;18.00;71.73;101965.41;5234647;28;21601;-74
2022/07/14 07:24:01;;;;;;;22.50;6.43;;;;;;;18.05;70.71;101971.22;5244216;28;20147;-74
2022/07/14 07:26:39;;;;;;;13.93;4.43;;;;;;;18.16;71.83;101961.66;5259353;28;20020;-75
2022/07/14 07:29:10;;;;;;;22.20;4.93;;;;;;;18.07;70.24;101953.41;5254547;28;20031;-76
2022/07/14 07:31:41;;;;;;;14.90;4.60;;;;;;;18.22;70.22;101956.72;5239842;28;20036;-75
2022/07/14 07:34:13;;;;;;;14.23;4.47;;;;;;;18.34;69.92;101960.28;5255272;28;20083;-74
2022/07/14 07:36:44;;;;;;;11.03;4.33;;;;;;;18.42;68.75;101966.78;5256679;28;20021;-74
2022/07/14 07:39:15;;;;;;;19.03;4.87;;;;;;;18.53;68.12;101969.50;5266038;28;20043;-75
2022/07/14 07:41:47;;;;;;;15.27;4.23;;;;;;;18.61;67.77;101951.16;5252881;28;20895;-72
2022/07/14 07:44:18;;;;;;;16.47;4.73;;;;;;;18.70;67.90;101938.16;5269380;28;20086;-72
2022/07/14 07:46:49;;;;;;;12.53;3.77;;;;;;;18.86;66.95;101941.31;5252995;28;20055;-73
2022/07/14 07:49:21;;;;;;;17.90;5.20;;;;;;;18.88;66.90;101927.06;5270744;28;20039;-72
2022/07/14 07:52:02;;;;;;;15.87;3.97;;;;;;;19.09;66.44;101943.13;5252473;28;20641;-73
2022/07/14 07:54:33;;;;;;;17.43;4.67;;;;;;;19.04;65.79;101946.13;5271538;28;20029;-74
2022/07/14 07:57:05;;;;;;;14.37;4.30;;;;;;;18.99;64.97;101946.50;5269775;28;20032;-74
2022/07/14 07:59:37;;;;;;;18.03;5.13;;;;;;;19.27;65.18;101935.50;5271185;28;20071;-74
2022/07/14 08:02:08;;;;;;;15.03;4.23;;;;;;;19.25;64.08;101932.16;5251547;28;20503;-74
2022/07/14 08:04:39;;;;;;;12.27;3.73;;;;;;;19.28;63.05;101929.25;5250379;28;20123;-74
2022/07/14 08:07:11;;;;;;;12.43;3.30;;;;;;;19.46;63.86;101929.56;5249692;28;20029;-74
2022/07/14 08:09:42;;;;;;;15.63;3.77;;;;;;;19.46;63.22;101923.44;5250487;28;20021;-74
2022/07/14 08:12:14;;;;;;;18.57;5.43;;;;;;;19.76;63.92;101921.88;5231297;28;20045;-74
2022/07/14 08:14:48;;;;;;;10.10;3.07;;;;;;;19.82;61.98;101928.50;5249543;28;20040;-74
2022/07/14 08:17:21;;;;;;;11.13;3.45;;;;;;;19.88;60.87;101912.03;5250513;28;20456;-74
2022/07/14 08:19:52;;;;;;;12.70;3.27;;;;;;;19.92;60.42;101902.00;5250344;28;20579;-73
2022/07/14 08:22:25;;;;;;;15.00;4.20;;;;;;;19.78;60.74;101909.31;5250155;28;20025;-74
2022/07/14 08:24:57;;;;;;;12.90;3.23;;;;;;;20.13;60.64;101906.50;5249617;28;20017;-74
2022/07/14 08:27:28;;;;;;;10.00;3.47;;;;;;;20.28;59.21;101907.88;5248359;28;20052;-74
2022/07/14 08:30:00;;;;;;;10.60;3.37;;;;;;;20.11;57.69;101908.47;5231868;28;20529;-73
2022/07/14 08:32:39;;;;;;;12.73;2.50;;;;;;;20.35;57.43;101900.22;5249008;28;20053;-73
2022/07/14 08:35:16;;;;;;;13.67;3.03;;;;;;;20.16;55.41;101915.06;5239074;28;20025;-74
2022/07/14 08:37:47;;;;;;;9.60;2.53;;;;;;;20.27;56.34;101908.84;5258057;28;20025;-74
2022/07/14 08:40:22;;;;;;;8.53;2.60;;;;;;;20.45;56.23;101908.25;5232955;28;20025;-74
2022/07/14 08:42:56;;;;;;;11.37;3.27;;;;;;;20.34;56.17;101910.97;5236904;28;20052;-74
2022/07/14 08:45:27;;;;;;;14.75;5.15;;;;;;;20.38;56.38;101912.41;5244496;28;20071;-74
2022/07/14 08:47:58;;;;;;;14.20;4.07;;;;;;;20.34;56.58;101908.31;5238272;28;20128;-74
2022/07/14 08:50:29;;;;;;;11.75;3.20;;;;;;;20.61;56.16;101913.13;5238182;28;20048;-74
2022/07/14 08:53:05;;;;;;;10.95;3.20;;;;;;;20.58;56.07;101910.69;5254810;28;20032;-74
2022/07/14 08:55:36;;;;;;;14.80;3.15;;;;;;;20.71;56.25;101894.53;5242781;28;20036;-73
2022/07/14 08:58:08;;;;;;;9.77;3.15;;;;;;;20.76;55.43;101905.59;5237690;28;20029;-73
2022/07/14 09:00:39;;;;;;;11.05;3.30;;;;;;;20.76;53.51;101902.94;5238108;28;20021;-73
2022/07/14 09:03:10;;;;;;;8.88;3.38;;;;;;;21.15;54.93;101912.91;5237880;28;20035;-73
2022/07/14 09:05:44;;;;;;;12.60;3.10;;;;;;;21.02;54.26;101910.50;5222805;28;20122;-73
2022/07/14 09:08:17;;;;;;;13.75;2.95;;;;;;;21.12;53.98;101899.84;5258804;28;20036;-73
2022/07/14 09:10:48;;;;;;;9.77;2.83;;;;;;;21.32;53.03;101896.41;5240796;28;20419;-73
2022/07/14 09:13:22;;;;;;;14.18;4.35;;;;;;;21.25;52.86;101901.44;5257100;28;20037;-73
2022/07/14 09:16:14;;;;;;;12.10;3.13;;;;;;;21.47;53.42;101897.69;5258896;28;20151;-73
2022/07/14 09:19:06;;;;;;;16.50;3.13;;;;;;;21.64;53.24;101905.97;5240272;28;20777;-74
2022/07/14 09:21:39;;;;;;;9.35;3.42;;;;;;;21.48;52.38;101899.38;5237747;28;20029;-74
2022/07/14 09:24:14;;;;;;;15.50;3.22;;;;;;;21.88;51.61;101889.59;5237679;28;20124;-71
2022/07/14 09:26:50;;;;;;;9.70;3.00;;;;;;;21.82;51.55;101878.66;5242954;28;20068;-71
2022/07/14 09:29:26;;;;;;;8.23;2.80;;;;;;;22.10;50.51;101898.25;5249805;28;21506;-71
2022/07/14 09:31:57;;;;;;;11.15;2.55;;;;;;;22.26;49.71;101898.63;5237797;28;20117;-72
2022/07/14 09:34:32;;;;;;;9.63;3.10;;;;;;;22.24;48.34;101888.97;5237335;28;20112;-71
2022/07/14 09:37:14;;;;;;;7.85;2.20;;;;;;;22.47;47.40;101899.28;5239771;28;20037;-73
2022/07/14 09:39:54;;;;;;;10.77;2.30;;;;;;;22.24;47.76;101888.09;5237369;28;20075;-73
2022/07/14 09:42:47;;;;;;;11.63;2.20;;;;;;;22.22;48.28;101890.94;5221643;28;20479;-73
2022/07/14 09:45:28;;;;;;;12.20;3.50;;;;;;;22.21;48.36;101893.75;5246625;28;20343;-74
2022/07/14 09:48:09;;;;;;;11.38;2.67;;;;;;;22.43;47.23;101887.22;5241328;28;20186;-71
2022/07/14 09:50:57;;;;;;;6.85;2.55;;;;;;;22.35;47.22;101890.63;5239666;28;20086;-73
2022/07/14 09:53:31;;;;;;;8.90;2.05;;;;;;;22.43;46.46;101887.22;5242252;28;20265;-72
2022/07/14 09:56:03;;;;;;;;;;;;;;;22.64;47.50;101899.53;5226264;28;20029;-73
2022/07/14 09:58:52;;;;;;;7.65;2.03;;;;;;;22.60;46.33;101893.59;5246828;28;19934;-71
2022/07/14 10:01:26;;;;;;;7.95;2.72;;;;;;;22.79;46.25;101907.06;5248315;28;20029;-71
2022/07/14 10:03:58;;;;;;;9.43;2.63;;;;;;;22.67;45.40;101904.56;5248256;28;20037;-72
2022/07/14 10:06:30;;;;;;;10.32;2.63;;;;;;;22.52;44.14;101904.19;5244741;28;20080;-71
2022/07/14 10:09:04;;;;;;;6.18;1.90;;;;;;;22.57;44.18;101888.56;5227919;28;20047;-72
2022/07/14 10:11:35;;;;;;;;;;;;;;;22.86;45.54;101893.97;5245779;28;20086;-74
2022/07/14 10:14:07;;;;;;;11.95;2.58;;;;;;;22.56;44.32;101894.06;5230701;28;19928;-72
2022/07/14 10:16:41;;;;;;;6.65;2.45;;;;;;;22.47;44.17;101893.97;5229453;28;20186;-72
2022/07/14 10:19:12;;;;;;;7.15;2.80;;;;;;;22.40;45.49;101898.19;5243821;28;20490;-76
2022/07/14 10:21:45;;;;;;;6.50;1.90;;;;;;;22.58;45.72;101905.44;5247005;28;20025;-73
2022/07/14 10:24:17;;;;;;;6.23;2.30;;;;;;;22.59;46.02;101894.59;5242605;28;20063;-74
2022/07/14 10:26:51;;;;;;;5.57;1.55;;;;;;;22.88;46.17;101895.50;5244161;28;20076;-71
2022/07/14 10:29:22;;;;;;;3.42;1.30;;;;;;;22.78;42.94;101897.38;5242177;28;20123;-71
2022/07/14 10:32:20;;;;;;;5.70;1.75;;;;;;;22.90;44.34;101906.88;5243851;28;20036;-70
2022/07/14 10:35:00;;;;;;;4.68;1.45;;;;;;;22.76;42.65;101907.38;5246444;28;20083;-71
2022/07/14 10:37:50;;;;;;;3.83;1.30;;;;;;;22.61;42.64;101907.81;5244878;28;20631;-71
2022/07/14 10:40:52;;;;;;;6.20;1.58;;;;;;;22.91;43.60;101913.06;5226517;28;20206;-72
2022/07/14 10:43:27;;;;;;;8.75;1.77;;;;;;;23.02;42.98;101906.69;5225292;28;20185;-71
2022/07/14 10:45:58;;;;;;;7.57;1.45;;;;;;;23.05;41.95;101917.06;5231107;28;20036;-71
2022/07/14 10:48:31;;;;;;;6.63;1.77;;;;;;;23.04;41.48;101904.72;5247472;28;20032;-70
2022/07/14 10:51:14;;;;;;;4.28;1.48;;;;;;;23.14;42.89;101921.53;5242677;28;20021;-71
2022/07/14 10:54:25;;;;;;;6.40;1.75;;;;;;;23.28;42.27;101911.31;5242862;28;20025;-70
2022/07/14 10:57:17;;;;;;;7.03;1.95;;;;;;;23.35;42.67;101906.19;5236822;28;20041;-74
2022/07/14 10:59:49;;;;;;;5.25;1.30;;;;;;;23.86;41.08;101903.03;5243892;28;20032;-71
2022/07/14 11:02:21;;;;;;;8.60;1.30;;;;;;;23.74;41.25;101905.91;5246033;28;20036;-71
2022/07/14 11:05:08;;;;;;;3.92;1.45;;;;;;;23.99;42.12;101913.31;5251324;28;20040;-73
2022/07/14 11:07:42;;;;;;;5.82;1.58;;;;;;;23.92;41.48;101910.41;5234644;28;20032;-72
2022/07/14 11:10:19;;;;;;;6.10;1.40;;;;;;;23.95;41.74;101911.94;5244468;28;20020;-71
2022/07/14 11:12:59;;;;;;;7.00;1.50;;;;;;;24.10;41.97;101906.88;5223986;28;20384;-69
2022/07/14 11:15:35;;;;;;;5.72;1.95;;;;;;;24.19;41.16;101897.94;5223865;28;20041;-70
2022/07/14 11:18:21;;;;;;;7.15;2.10;;;;;;;24.60;40.91;101904.50;5242210;28;20564;-70
2022/07/14 11:20:58;;;;;;;5.32;1.60;;;;;;;24.83;40.26;101912.81;5242471;28;20044;-71
2022/07/14 11:23:32;;;;;;;6.30;1.70;;;;;;;25.06;39.79;101904.22;5242139;28;21463;-71
2022/07/14 11:26:06;;;;;;;7.78;2.00;;;;;;;24.82;39.17;101900.41;5240784;28;20044;-72
2022/07/14 11:28:49;;;;;;;5.80;1.75;;;;;;;25.12;40.10;101900.03;5241673;28;20052;-72
2022/07/14 11:31:22;;;;;;;5.43;1.38;;;;;;;24.82;39.15;101891.56;5225538;28;20175;-72
2022/07/14 11:37:05;;;;;;;7.82;1.67;;;;;;;25.54;40.04;101892.91;5243031;28;20053;-73
2022/07/14 11:39:39;;;;;;;8.15;2.55;;;;;;;25.66;38.92;101895.31;5224522;28;20124;-72
2022/07/14 11:42:16;;;;;;;7.25;1.75;;;;;;;25.63;38.30;101896.44;5242784;28;20040;-72
2022/07/14 11:44:51;;;;;;;7.50;1.63;;;;;;;25.69;37.83;101894.97;5241257;28;20037;-72
2022/07/14 11:47:30;;;;;;;6.97;2.35;;;;;;;25.18;37.54;101893.19;5241664;28;20114;-72
2022/07/14 11:50:07;;;;;;;6.28;1.83;;;;;;;25.52;38.87;101899.47;5241145;28;20518;-72
2022/07/14 11:52:40;;;;;;;10.55;1.58;;;;;;;25.67;38.71;101894.28;5240312;28;20120;-72
2022/07/14 11:55:15;;;;;;;6.50;1.60;;;;;;;25.96;38.79;101899.13;5241688;28;20060;-72
2022/07/14 11:57:51;;;;;;;7.95;1.90;;;;;;;25.46;37.79;101904.47;5239091;28;20037;-71